sensor_id;sensor_type;location;lat;lon;timestamp;pressure;altitude;pressure_sealevel;temperature;humidity
76337;BME280;65157;50.082;18.178;2024-02-04T00:01:26;99294.90;;;7.68;78.60
76337;BME280;65157;50.082;18.178;2024-02-04T00:03:53;99295.04;;;7.69;78.53
76337;BME280;65157;50.082;18.178;2024-02-04T00:06:19;99298.14;;;7.71;78.44
76337;BME280;65157;50.082;18.178;2024-02-04T00:08:46;99291.85;;;7.70;78.51
76337;BME280;65157;50.082;18.178;2024-02-04T00:11:13;99285.33;;;7.70;78.45
76337;BME280;65157;50.082;18.178;2024-02-04T00:13:40;99285.67;;;7.71;78.35
76337;BME280;65157;50.082;18.178;2024-02-04T00:16:07;99287.40;;;7.72;78.20
76337;BME280;65157;50.082;18.178;2024-02-04T00:18:34;99284.23;;;7.72;78.06
76337;BME280;65157;50.082;18.178;2024-02-04T00:21:00;99291.79;;;7.72;77.97
76337;BME280;65157;50.082;18.178;2024-02-04T00:23:27;99290.48;;;7.74;77.95
76337;BME280;65157;50.082;18.178;2024-02-04T00:25:53;99296.63;;;7.75;77.93
76337;BME280;65157;50.082;18.178;2024-02-04T00:28:20;99298.88;;;7.76;77.92
76337;BME280;65157;50.082;18.178;2024-02-04T00:30:47;99294.28;;;7.77;77.97
76337;BME280;65157;50.082;18.178;2024-02-04T00:33:13;99294.61;;;7.77;77.90
76337;BME280;65157;50.082;18.178;2024-02-04T00:35:40;99295.45;;;7.78;77.90
76337;BME280;65157;50.082;18.178;2024-02-04T00:38:07;99292.98;;;7.79;77.85
76337;BME280;65157;50.082;18.178;2024-02-04T00:40:33;99286.31;;;7.79;78.02
76337;BME280;65157;50.082;18.178;2024-02-04T00:43:00;99291.90;;;7.80;77.89
76337;BME280;65157;50.082;18.178;2024-02-04T00:45:27;99295.20;;;7.81;77.86
76337;BME280;65157;50.082;18.178;2024-02-04T00:47:53;99290.25;;;7.82;77.85
76337;BME280;65157;50.082;18.178;2024-02-04T00:50:20;99290.98;;;7.87;77.63
76337;BME280;65157;50.082;18.178;2024-02-04T00:52:47;99285.57;;;7.91;77.80
76337;BME280;65157;50.082;18.178;2024-02-04T00:55:14;99285.33;;;7.93;77.91
76337;BME280;65157;50.082;18.178;2024-02-04T00:57:40;99289.35;;;7.94;78.00
76337;BME280;65157;50.082;18.178;2024-02-04T01:00:07;99287.59;;;7.94;78.03
76337;BME280;65157;50.082;18.178;2024-02-04T01:02:34;99283.89;;;7.94;78.11
76337;BME280;65157;50.082;18.178;2024-02-04T01:05:00;99275.95;;;7.90;78.21
76337;BME280;65157;50.082;18.178;2024-02-04T01:07:27;99278.98;;;7.94;78.32
76337;BME280;65157;50.082;18.178;2024-02-04T01:09:54;99273.55;;;7.94;78.52
76337;BME280;65157;50.082;18.178;2024-02-04T01:12:20;99267.02;;;7.95;78.30
76337;BME280;65157;50.082;18.178;2024-02-04T01:14:47;99263.96;;;7.96;78.30
76337;BME280;65157;50.082;18.178;2024-02-04T01:17:14;99263.42;;;7.97;78.28
76337;BME280;65157;50.082;18.178;2024-02-04T01:19:43;99258.64;;;7.98;78.15
76337;BME280;65157;50.082;18.178;2024-02-04T01:22:10;99261.63;;;7.98;78.15
76337;BME280;65157;50.082;18.178;2024-02-04T01:24:36;99263.33;;;8.00;78.18
76337;BME280;65157;50.082;18.178;2024-02-04T01:27:03;99269.28;;;8.01;78.13
76337;BME280;65157;50.082;18.178;2024-02-04T01:29:30;99270.34;;;8.01;78.07
76337;BME280;65157;50.082;18.178;2024-02-04T01:31:56;99271.35;;;8.02;77.91
76337;BME280;65157;50.082;18.178;2024-02-04T01:34:23;99271.88;;;8.02;78.08
76337;BME280;65157;50.082;18.178;2024-02-04T01:36:49;99277.83;;;8.03;78.12
76337;BME280;65157;50.082;18.178;2024-02-04T01:39:16;99270.83;;;8.02;78.03
76337;BME280;65157;50.082;18.178;2024-02-04T01:41:43;99269.09;;;8.01;78.11
76337;BME280;65157;50.082;18.178;2024-02-04T01:44:09;99268.60;;;8.00;78.28
76337;BME280;65157;50.082;18.178;2024-02-04T01:46:36;99266.59;;;8.02;78.29
76337;BME280;65157;50.082;18.178;2024-02-04T01:49:03;99262.06;;;8.01;78.28
76337;BME280;65157;50.082;18.178;2024-02-04T01:51:29;99263.55;;;7.98;78.40
76337;BME280;65157;50.082;18.178;2024-02-04T01:53:56;99271.93;;;8.01;78.39
76337;BME280;65157;50.082;18.178;2024-02-04T01:56:23;99270.92;;;7.99;78.55
76337;BME280;65157;50.082;18.178;2024-02-04T01:58:49;99266.59;;;7.97;78.73
76337;BME280;65157;50.082;18.178;2024-02-04T02:01:16;99261.86;;;7.97;78.74
76337;BME280;65157;50.082;18.178;2024-02-04T02:03:43;99251.34;;;7.95;78.76
76337;BME280;65157;50.082;18.178;2024-02-04T02:06:10;99250.64;;;7.96;78.74
76337;BME280;65157;50.082;18.178;2024-02-04T02:08:37;99249.95;;;7.95;78.89
76337;BME280;65157;50.082;18.178;2024-02-04T02:11:11;99256.15;;;7.93;79.12
76337;BME280;65157;50.082;18.178;2024-02-04T02:13:40;99251.98;;;7.92;79.09
76337;BME280;65157;50.082;18.178;2024-02-04T02:16:11;99251.54;;;7.89;79.07
76337;BME280;65157;50.082;18.178;2024-02-04T02:18:47;99263.81;;;7.90;79.34
76337;BME280;65157;50.082;18.178;2024-02-04T02:24:11;99262.12;;;7.88;79.41
76337;BME280;65157;50.082;18.178;2024-02-04T02:26:38;99252.50;;;7.87;79.48
76337;BME280;65157;50.082;18.178;2024-02-04T02:29:05;99253.60;;;7.85;79.50
76337;BME280;65157;50.082;18.178;2024-02-04T02:31:38;99253.31;;;7.83;79.45
76337;BME280;65157;50.082;18.178;2024-02-04T02:34:05;99264.71;;;7.84;79.74
76337;BME280;65157;50.082;18.178;2024-02-04T02:36:57;99278.12;;;7.82;79.97
76337;BME280;65157;50.082;18.178;2024-02-04T02:39:31;99289.45;;;7.79;80.48
76337;BME280;65157;50.082;18.178;2024-02-04T02:42:01;99296.65;;;7.74;81.06
76337;BME280;65157;50.082;18.178;2024-02-04T02:44:30;99304.88;;;7.69;81.26
76337;BME280;65157;50.082;18.178;2024-02-04T02:46:59;99314.00;;;7.63;81.64
76337;BME280;65157;50.082;18.178;2024-02-04T02:49:29;99316.89;;;7.61;82.06
76337;BME280;65157;50.082;18.178;2024-02-04T02:51:55;99314.02;;;7.56;82.60
76337;BME280;65157;50.082;18.178;2024-02-04T02:54:22;99319.31;;;7.50;83.21
76337;BME280;65157;50.082;18.178;2024-02-04T02:56:49;99314.55;;;7.44;83.14
76337;BME280;65157;50.082;18.178;2024-02-04T02:59:15;99308.48;;;7.42;83.15
76337;BME280;65157;50.082;18.178;2024-02-04T03:01:42;99304.18;;;7.38;83.45
76337;BME280;65157;50.082;18.178;2024-02-04T03:04:09;99312.48;;;7.36;83.48
76337;BME280;65157;50.082;18.178;2024-02-04T03:06:35;99321.98;;;7.36;83.51
76337;BME280;65157;50.082;18.178;2024-02-04T03:09:02;99321.64;;;7.36;83.38
76337;BME280;65157;50.082;18.178;2024-02-04T03:11:29;99320.23;;;7.37;83.68
76337;BME280;65157;50.082;18.178;2024-02-04T03:13:55;99305.01;;;7.34;83.78
76337;BME280;65157;50.082;18.178;2024-02-04T03:16:22;99302.69;;;7.35;83.46
76337;BME280;65157;50.082;18.178;2024-02-04T03:18:48;99305.48;;;7.36;83.60
76337;BME280;65157;50.082;18.178;2024-02-04T03:21:16;99301.27;;;7.36;83.87
76337;BME280;65157;50.082;18.178;2024-02-04T03:23:44;99300.75;;;7.36;83.83
76337;BME280;65157;50.082;18.178;2024-02-04T03:26:16;99308.30;;;7.36;83.84
76337;BME280;65157;50.082;18.178;2024-02-04T03:28:43;99310.06;;;7.36;83.90
76337;BME280;65157;50.082;18.178;2024-02-04T03:31:09;99301.80;;;7.35;83.99
76337;BME280;65157;50.082;18.178;2024-02-04T03:33:36;99296.59;;;7.33;84.13
76337;BME280;65157;50.082;18.178;2024-02-04T03:36:03;99287.17;;;7.31;84.31
76337;BME280;65157;50.082;18.178;2024-02-04T03:38:30;99281.80;;;7.29;84.46
76337;BME280;65157;50.082;18.178;2024-02-04T03:40:56;99275.99;;;7.29;84.22
76337;BME280;65157;50.082;18.178;2024-02-04T03:43:23;99265.15;;;7.28;84.02
76337;BME280;65157;50.082;18.178;2024-02-04T03:45:50;99264.95;;;7.28;84.17
76337;BME280;65157;50.082;18.178;2024-02-04T03:48:17;99258.34;;;7.27;84.02
76337;BME280;65157;50.082;18.178;2024-02-04T03:50:43;99259.70;;;7.29;83.86
76337;BME280;65157;50.082;18.178;2024-02-04T03:53:10;99259.30;;;7.30;83.98
76337;BME280;65157;50.082;18.178;2024-02-04T03:55:36;99265.23;;;7.31;84.09
76337;BME280;65157;50.082;18.178;2024-02-04T03:58:03;99270.80;;;7.33;83.97
76337;BME280;65157;50.082;18.178;2024-02-04T04:00:30;99263.58;;;7.34;84.00
76337;BME280;65157;50.082;18.178;2024-02-04T04:02:56;99257.20;;;7.37;83.80
76337;BME280;65157;50.082;18.178;2024-02-04T04:05:23;99261.20;;;7.37;84.06
76337;BME280;65157;50.082;18.178;2024-02-04T04:07:51;99266.14;;;7.36;84.30
76337;BME280;65157;50.082;18.178;2024-02-04T04:10:17;99263.89;;;7.35;84.10
76337;BME280;65157;50.082;18.178;2024-02-04T04:12:44;99259.85;;;7.35;84.26
76337;BME280;65157;50.082;18.178;2024-02-04T04:15:11;99255.98;;;7.35;84.21
76337;BME280;65157;50.082;18.178;2024-02-04T04:17:37;99251.61;;;7.34;84.07
76337;BME280;65157;50.082;18.178;2024-02-04T04:20:06;99260.04;;;7.35;83.98
76337;BME280;65157;50.082;18.178;2024-02-04T04:22:35;99262.32;;;7.35;84.14
76337;BME280;65157;50.082;18.178;2024-02-04T04:25:01;99266.75;;;7.34;84.04
76337;BME280;65157;50.082;18.178;2024-02-04T04:27:28;99255.63;;;7.30;84.19
76337;BME280;65157;50.082;18.178;2024-02-04T04:29:55;99262.77;;;7.31;84.11
76337;BME280;65157;50.082;18.178;2024-02-04T04:32:21;99267.72;;;7.30;84.17
76337;BME280;65157;50.082;18.178;2024-02-04T04:34:48;99281.79;;;7.30;84.33
76337;BME280;65157;50.082;18.178;2024-02-04T04:37:15;99283.71;;;7.30;84.21
76337;BME280;65157;50.082;18.178;2024-02-04T04:39:41;99283.19;;;7.30;84.21
76337;BME280;65157;50.082;18.178;2024-02-04T04:42:08;99285.32;;;7.29;84.46
76337;BME280;65157;50.082;18.178;2024-02-04T04:44:35;99282.90;;;7.27;84.51
76337;BME280;65157;50.082;18.178;2024-02-04T04:47:01;99281.07;;;7.24;84.51
76337;BME280;65157;50.082;18.178;2024-02-04T04:49:28;99278.42;;;7.25;84.60
76337;BME280;65157;50.082;18.178;2024-02-04T04:51:54;99280.20;;;7.24;84.59
76337;BME280;65157;50.082;18.178;2024-02-04T04:54:21;99291.97;;;7.24;84.76
76337;BME280;65157;50.082;18.178;2024-02-04T04:56:59;99304.82;;;7.22;84.78
76337;BME280;65157;50.082;18.178;2024-02-04T04:59:25;99315.18;;;7.22;84.74
76337;BME280;65157;50.082;18.178;2024-02-04T05:01:52;99316.98;;;7.20;84.36
76337;BME280;65157;50.082;18.178;2024-02-04T05:04:19;99315.25;;;7.20;83.61
76337;BME280;65157;50.082;18.178;2024-02-04T05:06:45;99325.35;;;7.22;83.50
76337;BME280;65157;50.082;18.178;2024-02-04T05:09:13;99333.98;;;7.22;83.55
76337;BME280;65157;50.082;18.178;2024-02-04T05:11:40;99338.38;;;7.22;83.50
76337;BME280;65157;50.082;18.178;2024-02-04T05:14:06;99339.39;;;7.22;83.22
76337;BME280;65157;50.082;18.178;2024-02-04T05:16:34;99330.27;;;7.23;83.10
76337;BME280;65157;50.082;18.178;2024-02-04T05:19:02;99329.70;;;7.24;82.70
76337;BME280;65157;50.082;18.178;2024-02-04T05:21:29;99333.56;;;7.23;82.86
76337;BME280;65157;50.082;18.178;2024-02-04T05:23:55;99336.37;;;7.24;82.68
76337;BME280;65157;50.082;18.178;2024-02-04T05:26:22;99325.84;;;7.24;82.83
76337;BME280;65157;50.082;18.178;2024-02-04T05:28:49;99327.79;;;7.23;82.78
76337;BME280;65157;50.082;18.178;2024-02-04T05:31:15;99332.05;;;7.21;82.90
76337;BME280;65157;50.082;18.178;2024-02-04T05:33:42;99335.09;;;7.20;83.15
76337;BME280;65157;50.082;18.178;2024-02-04T05:36:08;99337.60;;;7.17;83.16
76337;BME280;65157;50.082;18.178;2024-02-04T05:38:35;99336.59;;;7.16;83.26
76337;BME280;65157;50.082;18.178;2024-02-04T05:41:02;99338.91;;;7.14;83.12
76337;BME280;65157;50.082;18.178;2024-02-04T05:43:29;99335.77;;;7.14;83.35
76337;BME280;65157;50.082;18.178;2024-02-04T05:45:55;99331.35;;;7.09;83.14
76337;BME280;65157;50.082;18.178;2024-02-04T05:48:22;99333.27;;;7.10;82.70
76337;BME280;65157;50.082;18.178;2024-02-04T05:50:49;99336.03;;;7.11;82.89
76337;BME280;65157;50.082;18.178;2024-02-04T05:53:15;99339.02;;;7.11;82.57
76337;BME280;65157;50.082;18.178;2024-02-04T05:55:42;99340.10;;;7.10;82.75
76337;BME280;65157;50.082;18.178;2024-02-04T05:58:09;99334.48;;;7.10;82.44
76337;BME280;65157;50.082;18.178;2024-02-04T06:00:35;99326.05;;;7.10;82.24
76337;BME280;65157;50.082;18.178;2024-02-04T06:03:02;99325.41;;;7.08;82.28
76337;BME280;65157;50.082;18.178;2024-02-04T06:05:29;99322.43;;;7.07;82.74
76337;BME280;65157;50.082;18.178;2024-02-04T06:07:56;99322.23;;;7.08;82.76
76337;BME280;65157;50.082;18.178;2024-02-04T06:10:22;99317.86;;;7.08;82.53
76337;BME280;65157;50.082;18.178;2024-02-04T06:12:49;99319.64;;;7.07;82.60
76337;BME280;65157;50.082;18.178;2024-02-04T06:15:16;99312.12;;;7.05;82.54
76337;BME280;65157;50.082;18.178;2024-02-04T06:17:43;99318.63;;;7.06;82.68
76337;BME280;65157;50.082;18.178;2024-02-04T06:20:10;99316.92;;;7.04;82.42
76337;BME280;65157;50.082;18.178;2024-02-04T06:22:37;99318.88;;;7.03;82.51
76337;BME280;65157;50.082;18.178;2024-02-04T06:25:04;99320.16;;;7.01;82.22
76337;BME280;65157;50.082;18.178;2024-02-04T06:27:32;99318.11;;;6.99;81.92
76337;BME280;65157;50.082;18.178;2024-02-04T06:29:58;99320.94;;;6.98;81.83
76337;BME280;65157;50.082;18.178;2024-02-04T06:32:25;99320.63;;;6.96;81.24
76337;BME280;65157;50.082;18.178;2024-02-04T06:34:52;99322.38;;;6.96;81.26
76337;BME280;65157;50.082;18.178;2024-02-04T06:37:18;99322.23;;;6.95;81.11
76337;BME280;65157;50.082;18.178;2024-02-04T06:39:45;99327.02;;;6.94;80.83
76337;BME280;65157;50.082;18.178;2024-02-04T06:42:12;99328.09;;;6.93;80.59
76337;BME280;65157;50.082;18.178;2024-02-04T06:44:38;99331.77;;;6.93;80.41
76337;BME280;65157;50.082;18.178;2024-02-04T06:47:05;99328.84;;;6.91;80.47
76337;BME280;65157;50.082;18.178;2024-02-04T06:49:31;99328.52;;;6.90;80.21
76337;BME280;65157;50.082;18.178;2024-02-04T06:51:58;99335.58;;;6.89;80.40
76337;BME280;65157;50.082;18.178;2024-02-04T06:54:25;99330.88;;;6.87;80.74
76337;BME280;65157;50.082;18.178;2024-02-04T06:56:51;99332.45;;;6.87;80.62
76337;BME280;65157;50.082;18.178;2024-02-04T06:59:18;99325.09;;;6.87;80.27
76337;BME280;65157;50.082;18.178;2024-02-04T07:01:45;99329.82;;;6.87;80.46
76337;BME280;65157;50.082;18.178;2024-02-04T07:04:11;99328.77;;;6.87;80.44
76337;BME280;65157;50.082;18.178;2024-02-04T07:06:38;99326.33;;;6.86;80.15
76337;BME280;65157;50.082;18.178;2024-02-04T07:09:04;99323.89;;;6.86;79.96
76337;BME280;65157;50.082;18.178;2024-02-04T07:11:31;99316.90;;;6.85;80.22
76337;BME280;65157;50.082;18.178;2024-02-04T07:13:58;99312.19;;;6.84;80.35
76337;BME280;65157;50.082;18.178;2024-02-04T07:16:25;99313.60;;;6.83;80.46
76337;BME280;65157;50.082;18.178;2024-02-04T07:18:52;99324.66;;;6.83;80.69
76337;BME280;65157;50.082;18.178;2024-02-04T07:21:18;99330.48;;;6.81;80.89
76337;BME280;65157;50.082;18.178;2024-02-04T07:23:45;99337.55;;;6.79;81.07
76337;BME280;65157;50.082;18.178;2024-02-04T07:26:12;99343.55;;;6.78;81.12
76337;BME280;65157;50.082;18.178;2024-02-04T07:28:39;99346.93;;;6.76;81.32
76337;BME280;65157;50.082;18.178;2024-02-04T07:31:06;99354.55;;;6.73;81.47
76337;BME280;65157;50.082;18.178;2024-02-04T07:33:32;99351.80;;;6.71;81.68
76337;BME280;65157;50.082;18.178;2024-02-04T07:36:02;99353.60;;;6.69;81.86
76337;BME280;65157;50.082;18.178;2024-02-04T07:38:29;99355.40;;;6.67;82.04
76337;BME280;65157;50.082;18.178;2024-02-04T07:40:56;99351.58;;;6.67;81.97
76337;BME280;65157;50.082;18.178;2024-02-04T07:43:22;99352.95;;;6.67;82.22
76337;BME280;65157;50.082;18.178;2024-02-04T07:45:49;99367.16;;;6.67;82.45
76337;BME280;65157;50.082;18.178;2024-02-04T07:48:16;99368.27;;;6.65;82.49
76337;BME280;65157;50.082;18.178;2024-02-04T07:50:43;99368.63;;;6.64;82.72
76337;BME280;65157;50.082;18.178;2024-02-04T07:53:09;99371.45;;;6.64;82.86
76337;BME280;65157;50.082;18.178;2024-02-04T07:55:36;99372.98;;;6.65;82.88
76337;BME280;65157;50.082;18.178;2024-02-04T07:58:03;99365.27;;;6.66;82.76
76337;BME280;65157;50.082;18.178;2024-02-04T08:00:29;99352.63;;;6.67;83.02
76337;BME280;65157;50.082;18.178;2024-02-04T08:02:56;99348.42;;;6.66;82.97
76337;BME280;65157;50.082;18.178;2024-02-04T08:05:23;99346.08;;;6.68;83.01
76337;BME280;65157;50.082;18.178;2024-02-04T08:07:50;99343.56;;;6.70;83.03
76337;BME280;65157;50.082;18.178;2024-02-04T08:10:17;99347.02;;;6.73;83.12
76337;BME280;65157;50.082;18.178;2024-02-04T08:12:43;99340.65;;;6.75;83.32
76337;BME280;65157;50.082;18.178;2024-02-04T08:15:10;99350.55;;;6.79;83.43
76337;BME280;65157;50.082;18.178;2024-02-04T08:17:36;99327.30;;;6.82;83.80
76337;BME280;65157;50.082;18.178;2024-02-04T08:20:03;99306.75;;;6.84;83.64
76337;BME280;65157;50.082;18.178;2024-02-04T08:22:30;99327.56;;;6.86;83.64
76337;BME280;65157;50.082;18.178;2024-02-04T08:24:57;99322.43;;;6.88;83.79
76337;BME280;65157;50.082;18.178;2024-02-04T08:27:24;99326.03;;;6.91;83.61
76337;BME280;65157;50.082;18.178;2024-02-04T08:29:51;99321.88;;;6.95;83.11
76337;BME280;65157;50.082;18.178;2024-02-04T08:32:18;99314.04;;;7.00;82.01
76337;BME280;65157;50.082;18.178;2024-02-04T08:34:45;99316.15;;;7.06;82.24
76337;BME280;65157;50.082;18.178;2024-02-04T08:37:11;99309.73;;;7.10;82.38
76337;BME280;65157;50.082;18.178;2024-02-04T08:39:38;99308.75;;;7.13;82.44
76337;BME280;65157;50.082;18.178;2024-02-04T08:42:05;99313.33;;;7.13;82.43
76337;BME280;65157;50.082;18.178;2024-02-04T08:44:32;99321.27;;;7.18;82.57
76337;BME280;65157;50.082;18.178;2024-02-04T08:46:58;99331.41;;;7.19;82.61
76337;BME280;65157;50.082;18.178;2024-02-04T08:49:25;99335.92;;;7.22;82.45
76337;BME280;65157;50.082;18.178;2024-02-04T08:51:51;99329.52;;;7.24;82.60
76337;BME280;65157;50.082;18.178;2024-02-04T08:54:18;99332.79;;;7.26;82.80
76337;BME280;65157;50.082;18.178;2024-02-04T08:56:45;99326.54;;;7.30;82.96
76337;BME280;65157;50.082;18.178;2024-02-04T08:59:11;99321.33;;;7.34;83.02
76337;BME280;65157;50.082;18.178;2024-02-04T09:01:38;99322.05;;;7.39;82.73
76337;BME280;65157;50.082;18.178;2024-02-04T09:04:05;99323.70;;;7.44;82.89
76337;BME280;65157;50.082;18.178;2024-02-04T09:06:31;99319.68;;;7.49;82.89
76337;BME280;65157;50.082;18.178;2024-02-04T09:08:58;99324.83;;;7.53;82.78
76337;BME280;65157;50.082;18.178;2024-02-04T09:11:25;99315.07;;;7.57;82.56
76337;BME280;65157;50.082;18.178;2024-02-04T09:13:51;99314.77;;;7.61;82.59
76337;BME280;65157;50.082;18.178;2024-02-04T09:16:18;99315.89;;;7.65;82.51
76337;BME280;65157;50.082;18.178;2024-02-04T09:18:45;99309.78;;;7.70;82.47
76337;BME280;65157;50.082;18.178;2024-02-04T09:21:13;99309.33;;;7.73;82.30
76337;BME280;65157;50.082;18.178;2024-02-04T09:23:40;99310.10;;;7.76;82.40
76337;BME280;65157;50.082;18.178;2024-02-04T09:26:07;99312.61;;;7.81;82.33
76337;BME280;65157;50.082;18.178;2024-02-04T09:28:33;99310.11;;;7.87;82.47
76337;BME280;65157;50.082;18.178;2024-02-04T09:31:00;99308.23;;;7.97;82.81
76337;BME280;65157;50.082;18.178;2024-02-04T09:33:27;99308.64;;;8.07;82.60
76337;BME280;65157;50.082;18.178;2024-02-04T09:35:53;99308.58;;;8.15;82.53
76337;BME280;65157;50.082;18.178;2024-02-04T09:38:20;99300.17;;;8.19;82.22
76337;BME280;65157;50.082;18.178;2024-02-04T09:40:47;99297.48;;;8.26;82.40
76337;BME280;65157;50.082;18.178;2024-02-04T09:43:14;99298.08;;;8.31;82.46
76337;BME280;65157;50.082;18.178;2024-02-04T09:45:41;99300.52;;;8.36;82.46
76337;BME280;65157;50.082;18.178;2024-02-04T09:48:08;99294.31;;;8.38;82.21
76337;BME280;65157;50.082;18.178;2024-02-04T09:50:36;99291.79;;;8.39;82.25
76337;BME280;65157;50.082;18.178;2024-02-04T09:53:03;99289.65;;;8.41;82.24
76337;BME280;65157;50.082;18.178;2024-02-04T09:55:33;99288.36;;;8.42;82.17
76337;BME280;65157;50.082;18.178;2024-02-04T09:58:01;99284.52;;;8.41;82.27
76337;BME280;65157;50.082;18.178;2024-02-04T10:00:29;99282.02;;;8.42;82.54
76337;BME280;65157;50.082;18.178;2024-02-04T10:02:57;99284.84;;;8.42;82.48
76337;BME280;65157;50.082;18.178;2024-02-04T10:05:24;99286.86;;;8.45;82.31
76337;BME280;65157;50.082;18.178;2024-02-04T10:07:51;99288.92;;;8.46;82.06
76337;BME280;65157;50.082;18.178;2024-02-04T10:10:18;99282.17;;;8.48;81.91
76337;BME280;65157;50.082;18.178;2024-02-04T10:12:45;99276.52;;;8.50;82.03
76337;BME280;65157;50.082;18.178;2024-02-04T10:15:11;99280.88;;;8.50;82.02
76337;BME280;65157;50.082;18.178;2024-02-04T10:17:42;99279.45;;;8.50;81.96
76337;BME280;65157;50.082;18.178;2024-02-04T10:20:10;99275.73;;;8.52;82.03
76337;BME280;65157;50.082;18.178;2024-02-04T10:22:37;99276.73;;;8.53;82.16
76337;BME280;65157;50.082;18.178;2024-02-04T10:25:08;99261.59;;;8.54;82.27
76337;BME280;65157;50.082;18.178;2024-02-04T10:27:35;99255.05;;;8.54;82.35
76337;BME280;65157;50.082;18.178;2024-02-04T10:30:02;99241.30;;;8.56;82.14
76337;BME280;65157;50.082;18.178;2024-02-04T10:32:30;99230.58;;;8.56;81.95
76337;BME280;65157;50.082;18.178;2024-02-04T10:35:00;99233.58;;;8.55;82.08
76337;BME280;65157;50.082;18.178;2024-02-04T10:37:27;99232.88;;;8.55;82.08
76337;BME280;65157;50.082;18.178;2024-02-04T10:39:53;99217.77;;;8.55;82.37
76337;BME280;65157;50.082;18.178;2024-02-04T10:42:27;99211.79;;;8.54;82.67
76337;BME280;65157;50.082;18.178;2024-02-04T10:44:54;99212.16;;;8.53;82.76
76337;BME280;65157;50.082;18.178;2024-02-04T10:47:30;99211.97;;;8.54;82.80
76337;BME280;65157;50.082;18.178;2024-02-04T10:49:58;99206.89;;;8.53;82.85
76337;BME280;65157;50.082;18.178;2024-02-04T10:52:27;99203.52;;;8.55;83.09
76337;BME280;65157;50.082;18.178;2024-02-04T10:54:55;99192.09;;;8.54;82.58
76337;BME280;65157;50.082;18.178;2024-02-04T10:57:22;99186.00;;;8.53;82.40
76337;BME280;65157;50.082;18.178;2024-02-04T10:59:49;99188.86;;;8.51;82.51
76337;BME280;65157;50.082;18.178;2024-02-04T11:02:17;99185.05;;;8.44;82.80
76337;BME280;65157;50.082;18.178;2024-02-04T11:04:45;99182.05;;;8.40;83.12
76337;BME280;65157;50.082;18.178;2024-02-04T11:07:14;99181.89;;;8.34;83.65
76337;BME280;65157;50.082;18.178;2024-02-04T11:09:42;99185.80;;;8.28;83.78
76337;BME280;65157;50.082;18.178;2024-02-04T11:12:11;99184.84;;;8.24;83.91
76337;BME280;65157;50.082;18.178;2024-02-04T11:14:41;99182.52;;;8.20;84.28
76337;BME280;65157;50.082;18.178;2024-02-04T11:25:54;99130.96;;;8.11;84.65
76337;BME280;65157;50.082;18.178;2024-02-04T11:28:25;99119.06;;;8.14;84.60
76337;BME280;65157;50.082;18.178;2024-02-04T11:30:52;99117.98;;;8.20;84.88
76337;BME280;65157;50.082;18.178;2024-02-04T11:33:20;99121.30;;;8.26;85.32
76337;BME280;65157;50.082;18.178;2024-02-04T11:36:04;99121.10;;;8.32;85.72
76337;BME280;65157;50.082;18.178;2024-02-04T11:38:32;99097.67;;;8.33;85.85
76337;BME280;65157;50.082;18.178;2024-02-04T11:40:59;99089.67;;;8.41;85.42
76337;BME280;65157;50.082;18.178;2024-02-04T11:43:26;99074.71;;;8.46;84.78
76337;BME280;65157;50.082;18.178;2024-02-04T11:45:53;99065.36;;;8.52;84.79
76337;BME280;65157;50.082;18.178;2024-02-04T11:48:19;99065.30;;;8.58;85.21
76337;BME280;65157;50.082;18.178;2024-02-04T11:50:52;99057.58;;;8.67;84.87
76337;BME280;65157;50.082;18.178;2024-02-04T11:53:20;99050.68;;;8.77;84.35
76337;BME280;65157;50.082;18.178;2024-02-04T11:55:47;99035.75;;;8.90;84.33
76337;BME280;65157;50.082;18.178;2024-02-04T11:58:15;99025.39;;;9.02;84.39
76337;BME280;65157;50.082;18.178;2024-02-04T12:00:42;99021.83;;;9.21;83.99
76337;BME280;65157;50.082;18.178;2024-02-04T12:03:09;99017.20;;;9.39;83.15
76337;BME280;65157;50.082;18.178;2024-02-04T12:05:37;99017.40;;;9.51;82.83
76337;BME280;65157;50.082;18.178;2024-02-04T12:08:05;99014.70;;;9.57;81.71
76337;BME280;65157;50.082;18.178;2024-02-04T12:10:36;99019.14;;;9.60;80.44
76337;BME280;65157;50.082;18.178;2024-02-04T12:13:04;99015.66;;;9.59;80.28
76337;BME280;65157;50.082;18.178;2024-02-04T12:15:32;99016.83;;;9.56;80.55
76337;BME280;65157;50.082;18.178;2024-02-04T12:18:10;99016.79;;;9.53;80.12
76337;BME280;65157;50.082;18.178;2024-02-04T12:20:38;99016.88;;;9.51;80.47
76337;BME280;65157;50.082;18.178;2024-02-04T12:23:07;99013.83;;;9.48;80.29
76337;BME280;65157;50.082;18.178;2024-02-04T12:25:34;99002.29;;;9.46;80.29
76337;BME280;65157;50.082;18.178;2024-02-04T12:28:02;99001.30;;;9.45;80.36
76337;BME280;65157;50.082;18.178;2024-02-04T12:30:31;98999.39;;;9.44;80.12
76337;BME280;65157;50.082;18.178;2024-02-04T12:33:05;98991.64;;;9.44;80.14
76337;BME280;65157;50.082;18.178;2024-02-04T12:35:32;98992.58;;;9.43;79.85
76337;BME280;65157;50.082;18.178;2024-02-04T12:38:00;98997.02;;;9.42;80.02
76337;BME280;65157;50.082;18.178;2024-02-04T12:40:28;99003.22;;;9.41;79.89
76337;BME280;65157;50.082;18.178;2024-02-04T12:43:00;99000.27;;;9.40;79.97
76337;BME280;65157;50.082;18.178;2024-02-04T12:45:28;98998.48;;;9.40;80.02
76337;BME280;65157;50.082;18.178;2024-02-04T12:47:58;98993.55;;;9.40;80.15
76337;BME280;65157;50.082;18.178;2024-02-04T12:50:25;99002.92;;;9.40;80.08
76337;BME280;65157;50.082;18.178;2024-02-04T12:53:06;99002.84;;;9.37;80.38
76337;BME280;65157;50.082;18.178;2024-02-04T12:55:34;99009.26;;;9.36;80.22
76337;BME280;65157;50.082;18.178;2024-02-04T12:58:08;99006.86;;;9.34;80.16
76337;BME280;65157;50.082;18.178;2024-02-04T13:00:36;99006.91;;;9.32;79.97
76337;BME280;65157;50.082;18.178;2024-02-04T13:03:05;99006.92;;;9.32;80.38
76337;BME280;65157;50.082;18.178;2024-02-04T13:05:32;99009.75;;;9.32;80.74
76337;BME280;65157;50.082;18.178;2024-02-04T13:08:00;99007.36;;;9.30;80.50
76337;BME280;65157;50.082;18.178;2024-02-04T13:10:28;99013.31;;;9.27;80.75
76337;BME280;65157;50.082;18.178;2024-02-04T13:13:08;99021.86;;;9.24;81.20